首页
METAR-TAF:

METAR-TAF

机场 :

Wunstorf, 德国

纬度: 52-27N, 经度: 009-26E, 海拔: 57米

当前天气观测

该预报发布于1小时和3分钟前的19:20 UTC
风速6节,风向东转东南
温度 26°C
湿度 39%
气压 1020 hPa
能见度10公里或以上
多云层高于35000英尺

METAR: ETNW 241920Z 12006KT 9999 BKN350 26/11 Q1020 BLU+

时间: 22:23 (20:23 UTC)

预报

该预报发布于4小时和23分钟前的16:00 UTC
预报有效从24日的 17点(UTC)到 25日的 17点(UTC)
风速8节,风向东南
能见度10公里或以上
少量云层高于35000英尺
成为
从 25日的 08点(UTC)到 25日的 10点(UTC)
风速12节,风向南转南东,有时为22节阵风
能见度10公里或以上
少量云层高于18000英尺
散云层高于26000英尺

TAF: ETNW 241600Z 2417/2517 14008KT 9999 NSW FEW350 BECMG 2508/2510 15012G22KT 9999 NSW FEW180 SCT260 BY ETGL

超过4000个机场的气象观测和天气预报(METAR&TAF报告)。

可查询的气象台以黄色和红色小点在地图上表示。

将鼠标移到小点上方,可查看气象台名称。

然后点击查看天气观测和预报。

如需切换地图:点击带黑十字的绿色按钮放大地图;点击带横线的绿色按钮缩小地图;或者点击绿色箭头查看邻近地区的地图。


METAR-TAF: